Time;durP1;ratioP1;P1;durP2;ratioP2;P2;SDS_P1;SDS_P2;PMS_P1;PMS_P2;Temp;Humidity;BMP_temperature;BMP_pressure;BME280_temperature;BME280_humidity;BME280_pressure;Samples;Min_cycle;Max_cycle;Signal;HPM_P1;HPM_P2
2023/12/23 00:01:29;;;;;;;243.43;72.03;;;;;;;;;;4997700;28;20220;-47
2023/12/23 00:03:55;;;;;;;234.13;63.43;;;;;;;;;;4989893;28;20271;-47
2023/12/23 00:06:21;;;;;;;194.13;52.63;;;1.80;99.90;;;;;;4999507;28;20192;-47
2023/12/23 00:08:47;;;;;;;226.40;62.83;;;;;;;;;;4995282;28;20304;-47
2023/12/23 00:11:13;;;;;;;193.50;50.83;;;;;;;;;;4996136;28;20505;-48
2023/12/23 00:13:39;;;;;;;221.80;60.33;;;;;;;;;;4992864;28;20671;-47
2023/12/23 00:16:05;;;;;;;161.37;43.50;;;;;;;;;;5001240;28;20341;-47
2023/12/23 00:18:31;;;;;;;201.57;56.43;;;;;;;;;;5002455;28;20811;-47
2023/12/23 00:20:57;;;;;;;237.97;63.63;;;;;;;;;;4992434;28;20200;-47
2023/12/23 00:23:23;;;;;;;176.50;44.37;;;;;;;;;;4993870;28;20222;-47
2023/12/23 00:25:49;;;;;;;203.70;51.03;;;;;;;;;;5003641;28;20311;-47
2023/12/23 00:28:15;;;;;;;203.57;50.37;;;;;;;;;;4993116;28;20732;-47
2023/12/23 00:30:40;;;;;;;184.77;52.07;;;;;;;;;;4995074;28;20567;-48
2023/12/23 00:33:07;;;;;;;194.13;54.70;;;;;;;;;;4990694;28;20635;-47
2023/12/23 00:35:33;;;;;;;253.80;67.77;;;;;;;;;;4994948;28;20609;-47
2023/12/23 00:37:59;;;;;;;158.67;41.83;;;;;;;;;;4998844;28;20274;-47
2023/12/23 00:40:25;;;;;;;218.17;61.57;;;;;;;;;;4993402;28;20221;-47
2023/12/23 00:42:51;;;;;;;191.60;49.70;;;;;;;;;;5001130;28;20224;-47
2023/12/23 00:45:17;;;;;;;219.70;59.20;;;;;;;;;;4997991;28;20189;-47
2023/12/23 00:47:43;;;;;;;195.87;55.77;;;;;;;;;;4996168;28;20240;-47
2023/12/23 00:50:09;;;;;;;264.20;69.80;;;;;;;;;;4989766;28;20236;-47
2023/12/23 00:52:35;;;;;;;219.20;63.17;;;;;;;;;;4994925;28;20215;-47
2023/12/23 00:55:02;;;;;;;235.90;63.57;;;;;;;;;;4996307;28;20275;-47
2023/12/23 00:57:28;;;;;;;181.07;47.77;;;;;;;;;;4997823;28;20197;-47
2023/12/23 00:59:55;;;;;;;219.77;58.67;;;;;;;;;;4992188;28;20455;-47
2023/12/23 01:02:21;;;;;;;195.80;50.53;;;;;;;;;;5004446;28;20221;-47
2023/12/23 01:04:47;;;;;;;203.00;54.50;;;;;;;;;;4995258;28;20265;-48
2023/12/23 01:07:13;;;;;;;192.77;48.03;;;;;;;;;;4995656;28;20298;-47
2023/12/23 01:09:39;;;;;;;207.57;56.57;;;;;;;;;;4993298;28;20185;-47
2023/12/23 01:12:06;;;;;;;194.37;50.93;;;1.80;1.00;;;;;;4990765;28;20208;-47
2023/12/23 01:14:32;;;;;;;166.77;45.47;;;1.70;1.00;;;;;;4990335;28;20270;-47
2023/12/23 01:16:58;;;;;;;212.90;57.30;;;;;;;;;;4998954;28;20225;-47
2023/12/23 01:19:24;;;;;;;201.73;50.73;;;;;;;;;;5000742;28;20342;-47
2023/12/23 01:21:50;;;;;;;222.70;55.77;;;;;;;;;;4997740;28;20259;-47
2023/12/23 01:24:16;;;;;;;238.63;60.80;;;;;;;;;;4998083;28;20180;-47
2023/12/23 01:26:42;;;;;;;208.73;53.37;;;;;;;;;;4995841;28;20209;-48
2023/12/23 01:29:08;;;;;;;210.27;54.30;;;;;;;;;;4991551;28;20262;-48
2023/12/23 01:31:34;;;;;;;206.73;49.50;;;;;;;;;;4993144;28;20648;-47
2023/12/23 01:34:00;;;;;;;165.80;38.87;;;;;;;;;;5008329;28;20619;-47
2023/12/23 01:36:26;;;;;;;189.70;43.30;;;;;;;;;;4989381;28;20296;-47
2023/12/23 01:38:51;;;;;;;171.87;41.20;;;;;;;;;;4997811;28;20972;-48
2023/12/23 01:41:17;;;;;;;194.57;47.83;;;;;;;;;;5003020;28;20224;-47
2023/12/23 01:43:43;;;;;;;219.47;55.73;;;;;;;;;;5000571;28;20261;-48
2023/12/23 01:46:09;;;;;;;194.23;45.63;;;;;;;;;;4993942;28;20224;-47
2023/12/23 01:48:38;;;;;;;234.57;59.13;;;;;;;;;;5001246;28;20199;-47
2023/12/23 01:51:04;;;;;;;157.10;39.80;;;;;;;;;;4995824;28;20201;-47
2023/12/23 01:53:31;;;;;;;161.60;39.80;;;;;;;;;;4994187;28;20556;-47
2023/12/23 01:55:57;;;;;;;262.53;67.50;;;;;;;;;;4997668;28;20255;-47
2023/12/23 01:58:23;;;;;;;232.93;57.57;;;;;;;;;;4994001;28;20213;-48
2023/12/23 02:00:49;;;;;;;239.23;60.83;;;;;;;;;;4994960;28;20318;-47
2023/12/23 02:03:15;;;;;;;215.83;53.70;;;;;;;;;;4992291;28;21279;-47
2023/12/23 02:05:42;;;;;;;205.13;52.17;;;;;;;;;;4997835;28;20221;-47
2023/12/23 02:08:08;;;;;;;222.93;57.57;;;;;;;;;;4999802;28;20223;-47
2023/12/23 02:10:34;;;;;;;166.93;41.17;;;;;;;;;;5003453;28;20217;-47
2023/12/23 02:13:11;;;;;;;223.67;53.93;;;;;;;;;;4996775;28;20239;-47
2023/12/23 02:15:38;;;;;;;182.97;45.67;;;;;;;;;;4992980;28;20288;-47
2023/12/23 02:18:04;;;;;;;210.20;52.20;;;;;;;;;;5007221;28;20415;-47
2023/12/23 02:20:30;;;;;;;163.93;39.53;;;;;;;;;;4994349;28;20764;-47
2023/12/23 02:22:56;;;;;;;211.53;54.97;;;;;;;;;;4997609;28;20240;-47
2023/12/23 02:28:25;;;;;;;154.90;36.47;;;;;;;;;;4998095;28;20310;-47
2023/12/23 02:30:51;;;;;;;193.80;44.90;;;;;;;;;;4995754;28;20314;-47
2023/12/23 02:33:17;;;;;;;272.07;66.33;;;;;;;;;;5000319;28;20276;-47
2023/12/23 02:35:43;;;;;;;223.13;52.07;;;;;;;;;;5001524;28;20474;-48
2023/12/23 02:38:10;;;;;;;195.27;44.73;;;;;;;;;;4996332;28;20657;-47
2023/12/23 02:40:36;;;;;;;180.90;42.73;;;;;;;;;;4995338;28;20225;-47
2023/12/23 02:43:02;;;;;;;225.50;56.53;;;;;;;;;;4994882;28;20205;-47
2023/12/23 02:45:28;;;;;;;185.07;46.60;;;;;;;;;;5002697;28;20216;-47
2023/12/23 02:47:54;;;;;;;204.37;51.57;;;;;;;;;;4996411;28;20219;-47
2023/12/23 02:50:20;;;;;;;200.57;48.63;;;;;;;;;;5000470;28;20232;-47
2023/12/23 02:52:46;;;;;;;216.63;52.53;;;;;;;;;;4999565;28;20232;-48
2023/12/23 02:55:12;;;;;;;259.47;64.30;;;;;;;;;;4995637;28;20217;-47
2023/12/23 02:57:38;;;;;;;178.00;41.90;;;;;;;;;;4990481;28;20797;-47
2023/12/23 03:00:04;;;;;;;171.23;39.87;;;;;;;;;;5000104;28;20218;-47
2023/12/23 03:02:30;;;;;;;168.30;41.77;;;;;;;;;;5002188;28;20603;-47
2023/12/23 03:04:56;;;;;;;232.07;54.40;;;;;;;;;;4996204;28;20467;-47
2023/12/23 03:07:22;;;;;;;208.90;48.57;;;;;;;;;;4994777;28;21168;-47
2023/12/23 03:09:48;;;;;;;213.03;46.20;;;;;;;;;;4990499;28;20222;-47
2023/12/23 03:12:14;;;;;;;207.67;48.30;;;;;;;;;;4993798;28;20181;-47
2023/12/23 03:14:40;;;;;;;183.27;41.93;;;;;;;;;;5002469;28;20220;-47
2023/12/23 03:17:06;;;;;;;236.10;56.40;;;;;;;;;;4989291;28;20661;-48
2023/12/23 03:19:32;;;;;;;203.07;46.77;;;;;;;;;;5004630;28;20273;-48
2023/12/23 03:21:58;;;;;;;154.53;37.00;;;;;;;;;;4996601;28;20247;-47
2023/12/23 03:24:24;;;;;;;220.53;54.60;;;;;;;;;;4991515;28;20181;-48
2023/12/23 03:26:50;;;;;;;209.07;49.57;;;;;;;;;;5001377;28;20174;-47
2023/12/23 03:29:16;;;;;;;223.93;51.40;;;;;;;;;;4997782;28;20351;-47
2023/12/23 03:31:42;;;;;;;214.97;50.73;;;;;;;;;;4994932;28;20216;-47
2023/12/23 03:34:08;;;;;;;181.37;42.47;;;;;;;;;;4999090;28;20292;-47
2023/12/23 03:36:34;;;;;;;183.77;43.07;;;;;;;;;;4997764;28;20656;-48
2023/12/23 03:38:59;;;;;;;269.33;66.90;;;;;;;;;;4994441;28;20504;-48
2023/12/23 03:41:25;;;;;;;173.37;41.83;;;;;;;;;;4998110;28;20220;-47
2023/12/23 03:43:51;;;;;;;188.50;47.20;;;;;;;;;;4990961;28;20279;-47
2023/12/23 03:46:18;;;;;;;207.90;48.80;;;;;;;;;;4996747;28;20427;-47
2023/12/23 03:48:44;;;;;;;241.83;59.80;;;;;;;;;;4998424;28;20220;-47
2023/12/23 03:51:10;;;;;;;216.77;51.60;;;;;;;;;;4996996;28;20205;-48
2023/12/23 03:53:36;;;;;;;169.73;40.63;;;;;;;;;;4996520;28;20252;-47
2023/12/23 03:56:02;;;;;;;182.40;41.47;;;;;;;;;;4997069;28;20215;-47
2023/12/23 03:58:28;;;;;;;184.80;42.73;;;;;;;;;;4995403;28;20398;-47
2023/12/23 04:00:54;;;;;;;230.20;54.73;;;;;;;;;;4992214;28;20280;-47
2023/12/23 04:03:20;;;;;;;181.30;43.13;;;;;;;;;;4994908;28;20559;-47
2023/12/23 04:05:46;;;;;;;287.07;71.00;;;;;;;;;;4995829;28;20736;-47
2023/12/23 04:08:12;;;;;;;211.97;48.87;;;;;;;;;;4998775;28;20225;-47
2023/12/23 04:10:38;;;;;;;243.97;58.60;;;;;;;;;;4987753;28;20225;-47
2023/12/23 04:13:04;;;;;;;270.93;66.67;;;;;;;;;;4988984;28;20220;-53
2023/12/23 04:15:30;;;;;;;215.93;49.90;;;;;;;;;;4992218;28;20235;-47
2023/12/23 04:17:55;;;;;;;279.27;70.47;;;;;;;;;;4994296;28;20189;-47
2023/12/23 04:20:21;;;;;;;164.10;39.30;;;;;;;;;;4992310;28;20668;-47
2023/12/23 04:22:48;;;;;;;196.63;49.20;;;;;;;;;;4994957;28;20888;-47
2023/12/23 04:25:17;;;;;;;219.13;48.63;;;;;;;;;;4996165;28;20671;-47
2023/12/23 04:27:43;;;;;;;215.47;49.77;;;;;;;;;;4992779;28;20698;-47
2023/12/23 04:30:09;;;;;;;222.07;53.50;;;;;;;;;;4997375;28;20204;-47
2023/12/23 04:32:35;;;;;;;165.70;38.10;;;;;;;;;;4995589;28;20204;-47
2023/12/23 04:35:03;;;;;;;187.90;44.60;;;;;;;;;;4988111;28;20278;-47
2023/12/23 04:37:29;;;;;;;190.20;43.77;;;;;;;;;;4997913;28;20221;-47
2023/12/23 04:39:55;;;;;;;236.97;56.30;;;;;;;;;;4994764;28;20229;-47
2023/12/23 04:42:21;;;;;;;201.83;45.33;;;;;;;;;;4998260;28;20181;-47
2023/12/23 04:44:47;;;;;;;227.07;54.17;;;;;;;;;;4990819;28;20259;-47
2023/12/23 04:47:13;;;;;;;203.17;47.43;;;;;;;;;;5004646;28;20219;-47
2023/12/23 04:49:39;;;;;;;255.47;62.67;;;;;;;;;;4990538;28;20581;-47
2023/12/23 04:52:05;;;;;;;201.27;43.83;;;;;;;;;;4994986;28;21317;-47
2023/12/23 04:54:32;;;;;;;227.23;54.47;;;;;;;;;;4999192;28;20189;-47
2023/12/23 04:56:58;;;;;;;232.50;55.23;;;;;;;;;;4997596;28;20274;-47
2023/12/23 04:59:24;;;;;;;185.30;44.30;;;;;;;;;;4994474;28;20711;-48
2023/12/23 05:01:50;;;;;;;222.63;51.40;;;;;;;;;;5003204;28;20563;-48
2023/12/23 05:04:16;;;;;;;194.10;45.77;;;;;;;;;;4990657;28;20614;-47
2023/12/23 05:06:42;;;;;;;170.07;38.60;;;;;;;;;;4995318;28;20195;-47
2023/12/23 05:09:08;;;;;;;270.50;63.30;;;;;;;;;;4994170;28;20188;-47
2023/12/23 05:11:34;;;;;;;254.07;44.50;;;;;;;;;;5017563;22;20722;-51
2023/12/23 05:14:00;;;;;;;293.10;52.17;;;;;;;;;;4987986;28;20221;-51
2023/12/23 05:16:26;;;;;;;223.33;36.20;;;;;;;;;;4986225;28;20228;-51
2023/12/23 05:18:52;;;;;;;238.13;42.00;;;;;;;;;;4991959;28;20221;-51
2023/12/23 05:21:18;;;;;;;251.80;39.97;;;;;;;;;;4981305;28;20201;-51
2023/12/23 05:23:44;;;;;;;317.90;57.53;;;;;;;;;;4967345;28;20209;-51
2023/12/23 05:26:10;;;;;;;252.77;43.03;;;;;;;;;;4976460;28;20307;-51
2023/12/23 05:28:36;;;;;;;216.27;36.93;;;;;;;;;;4973149;28;20456;-51
2023/12/23 05:31:02;;;;;;;244.20;42.97;;;;;;;;;;4975785;28;20217;-51
2023/12/23 05:33:28;;;;;;;277.93;51.00;;;;;;;;;;4978050;28;20209;-51
2023/12/23 05:35:54;;;;;;;258.73;46.30;;;;;;;;;;4968678;28;20209;-51
2023/12/23 05:38:20;;;;;;;232.07;38.53;;;;;;;;;;4969889;28;20335;-51
2023/12/23 05:40:46;;;;;;;242.70;41.27;;;;;;;;;;4975073;28;20303;-51
2023/12/23 05:43:12;;;;;;;351.90;68.77;;;;;;;;;;4971996;28;20221;-51
2023/12/23 05:45:37;;;;;;;263.47;48.43;;;;;;;;;;4970132;28;20543;-50
2023/12/23 05:48:04;;;;;;;233.53;39.57;;;;;;;;;;4974316;28;21402;-50
2023/12/23 05:50:30;;;;;;;216.20;38.97;;;;;;;;;;4978115;28;20224;-50
2023/12/23 05:52:56;;;;;;;315.20;57.53;;;;;;;;;;4969126;28;20226;-50
2023/12/23 05:55:22;;;;;;;258.27;47.53;;;;;;;;;;4977667;28;20225;-51
2023/12/23 05:57:48;;;;;;;236.50;39.93;;;;;;;;;;4973170;28;20225;-51
2023/12/23 06:00:14;;;;;;;277.90;49.30;;;;;;;;;;4974157;28;20854;-51
2023/12/23 06:02:40;;;;;;;194.63;34.77;;;;;;;;;;4974798;28;20280;-51
2023/12/23 06:05:06;;;;;;;318.03;57.23;;;;;;;;;;4970902;28;20348;-51
2023/12/23 06:07:34;;;;;;;242.93;42.40;;;;;;;;;;4978464;28;20317;-51
2023/12/23 06:10:00;;;;;;;270.00;49.07;;;;;;;;;;4978350;28;20217;-51
2023/12/23 06:12:26;;;;;;;211.67;36.77;;;;;;;;;;4987064;28;20760;-51
2023/12/23 06:14:54;;;;;;;327.33;60.17;;;;;;;;;;4978420;28;20186;-50
2023/12/23 06:17:20;;;;;;;310.10;55.17;;;;;;;;;;4981117;28;20230;-50
2023/12/23 06:19:46;;;;;;;254.03;42.57;;;;;;;;;;4974262;28;20228;-50
2023/12/23 06:22:12;;;;;;;236.40;42.60;;;;;;;;;;4981179;28;20212;-51
2023/12/23 06:24:38;;;;;;;215.43;36.93;;;;;;;;;;4977876;28;20182;-51
2023/12/23 06:27:04;;;;;;;294.50;56.07;;;;;;;;;;4975717;28;20213;-51
2023/12/23 06:29:30;;;;;;;260.97;46.33;;;;;;;;;;4985562;28;20233;-51
2023/12/23 06:31:57;;;;;;;259.07;48.33;;;;;;;;;;4974954;28;20229;-51
2023/12/23 06:34:23;;;;;;;267.47;45.97;;;;;;;;;;4976509;28;20225;-51
2023/12/23 06:36:49;;;;;;;280.63;50.80;;;;;;;;;;4979045;28;20238;-51
2023/12/23 06:39:15;;;;;;;327.87;59.50;;;;;;;;;;4975164;28;20182;-51
2023/12/23 06:41:41;;;;;;;226.77;38.43;;;;;;;;;;4985446;28;20224;-51
2023/12/23 06:44:07;;;;;;;249.37;43.00;;;;;;;;;;4977041;28;20217;-51
2023/12/23 06:46:32;;;;;;;174.57;32.20;;;;;;;;;;4978536;28;20538;-51
2023/12/23 06:48:58;;;;;;;317.37;59.47;;;;;;;;;;4978432;28;20221;-51
2023/12/23 06:51:24;;;;;;;220.07;39.73;;;;;;;;;;4981525;28;20213;-51
2023/12/23 06:53:50;;;;;;;198.43;36.27;;;;;;;;;;4976645;28;20192;-51
2023/12/23 06:56:16;;;;;;;225.07;41.30;;;;;;;;;;4978304;28;20364;-51
2023/12/23 06:58:43;;;;;;;236.77;42.37;;;;;;;;;;4969099;28;20210;-51
2023/12/23 07:01:09;;;;;;;228.03;39.13;;;;;;;;;;4976920;28;20223;-52
2023/12/23 07:03:35;;;;;;;199.40;35.73;;;;;;;;;;4977091;28;20181;-51
2023/12/23 07:06:01;;;;;;;268.63;48.67;;;;;;;;;;4979903;28;20601;-51
2023/12/23 07:08:27;;;;;;;214.33;37.93;;;;;;;;;;4971950;28;20236;-51
2023/12/23 07:10:53;;;;;;;296.60;55.17;;;;;;;;;;4966690;28;20315;-51
2023/12/23 07:13:19;;;;;;;331.67;61.63;;;;;;;;;;4975967;28;20672;-52
2023/12/23 07:15:45;;;;;;;224.83;38.00;;;;;;;;;;4973998;28;20272;-51
2023/12/23 07:18:11;;;;;;;262.87;45.30;;;;;;;;;;4982950;28;20231;-51
2023/12/23 07:20:39;;;;;;;204.10;35.20;;;;;;;;;;4972933;28;20304;-51
2023/12/23 07:23:05;;;;;;;346.77;65.60;;;;;;;;;;4970792;28;20722;-51
2023/12/23 07:25:31;;;;;;;260.70;44.53;;;;;;;;;;4973701;28;20221;-51
2023/12/23 07:27:57;;;;;;;229.63;41.40;;;;;;;;;;4980713;28;20206;-52
2023/12/23 07:30:23;;;;;;;244.10;41.27;;;;;;;;;;4974524;28;20233;-51
2023/12/23 07:32:49;;;;;;;265.63;49.47;;;;;;;;;;4981251;28;20225;-51
2023/12/23 07:35:15;;;;;;;250.03;47.23;;;;;;;;;;4979789;28;20675;-52
2023/12/23 07:37:41;;;;;;;233.77;41.27;;;;;;;;;;4969079;28;20210;-51
2023/12/23 07:40:07;;;;;;;231.57;41.07;;;;;;;;;;4979893;28;20212;-51
2023/12/23 07:42:33;;;;;;;235.10;42.20;;;;;;;;;;4975339;28;20189;-51
2023/12/23 07:44:59;;;;;;;290.50;58.20;;;;;;;;;;4969308;28;20193;-51
2023/12/23 07:47:25;;;;;;;266.67;50.10;;;;;;;;;;4975004;28;20223;-51
2023/12/23 07:49:51;;;;;;;233.27;39.63;;;;;;;;;;4969490;28;20213;-52
2023/12/23 07:52:17;;;;;;;236.50;41.13;;;;;;;;;;4972423;28;20228;-51
2023/12/23 07:54:43;;;;;;;238.57;41.20;;;;;;;;;;4975654;28;20216;-51
2023/12/23 07:57:09;;;;;;;229.00;41.07;;;;;;;;;;4974535;28;20190;-50
2023/12/23 07:59:35;;;;;;;181.67;32.27;;;;;;;;;;4978517;28;20282;-50
2023/12/23 08:02:01;;;;;;;217.83;41.90;;;;;;;;;;4973560;28;20248;-49
2023/12/23 08:04:27;;;;;;;199.37;36.97;;;;;;;;;;4977148;28;20556;-51
2023/12/23 08:06:53;;;;;;;250.27;45.23;;;;;;;;;;4970542;28;20360;-51
2023/12/23 08:09:19;;;;;;;278.93;51.33;;;;;;;;;;4980571;28;20190;-51
2023/12/23 08:11:45;;;;;;;213.07;36.90;;;;;;;;;;4974431;28;20231;-51
2023/12/23 08:14:11;;;;;;;268.57;48.27;;;;;;;;;;4980324;28;20311;-51
2023/12/23 08:16:37;;;;;;;204.00;36.43;;;;;;;;;;4952751;28;20229;-50
2023/12/23 08:19:03;;;;;;;226.37;42.10;;;;;;;;;;4958462;28;20309;-50
2023/12/23 08:21:29;;;;;;;261.27;50.10;;;;;;;;;;4967599;28;20557;-50
2023/12/23 08:23:55;;;;;;;329.97;64.37;;;;;;;;;;4962584;28;20280;-51
2023/12/23 08:29:25;;;;;;;266.87;47.33;;;;;;;;;;4971080;28;20252;-51
2023/12/23 08:31:51;;;;;;;226.57;41.30;;;;;;;;;;4967237;28;20253;-51
2023/12/23 08:34:17;;;;;;;240.03;43.03;;;;;;;;;;4967681;28;20347;-51
2023/12/23 08:36:43;;;;;;;243.77;49.87;;;;;;;;;;4969036;28;20689;-51
2023/12/23 08:39:10;;;;;;;202.87;38.93;;;;;;;;;;4966502;28;20664;-50
2023/12/23 08:41:36;;;;;;;213.20;37.40;;;;;;;;;;4969572;28;20225;-51
2023/12/23 08:44:05;;;;;;;282.67;54.80;;;;;;;;;;4968286;28;20930;-51
2023/12/23 08:46:31;;;;;;;293.33;55.33;;;;;;;;;;4964713;28;20276;-50
2023/12/23 08:48:57;;;;;;;262.47;50.53;;;;;;;;;;4974648;28;20232;-50
2023/12/23 08:51:23;;;;;;;268.03;48.93;;;;;;;;;;4975253;28;20206;-50
2023/12/23 08:53:49;;;;;;;214.33;40.70;;;;;;;;;;4983946;28;20233;-49
2023/12/23 08:56:15;;;;;;;178.07;32.57;;;;;;;;;;4980315;28;20220;-50
2023/12/23 08:58:41;;;;;;;298.07;57.30;;;;;;;;;;4975192;28;20213;-50
2023/12/23 09:01:07;;;;;;;248.37;52.17;;;;;;;;;;4978926;28;20212;-51
2023/12/23 09:03:33;;;;;;;225.27;40.47;;;;;;;;;;4993403;28;20220;-51
2023/12/23 09:05:59;;;;;;;298.77;59.37;;;;;;;;;;4978842;28;20427;-50
2023/12/23 09:08:25;;;;;;;247.63;45.30;;;;;;;;;;4982504;28;20229;-51
2023/12/23 09:10:51;;;;;;;274.33;48.80;;;;;;;;;;4975042;28;20228;-51
2023/12/23 09:13:17;;;;;;;259.53;48.73;;;;;;;;;;4986500;28;20212;-51
2023/12/23 09:15:43;;;;;;;212.53;39.63;;;;;;;;;;4984109;28;20190;-51
2023/12/23 09:18:09;;;;;;;243.77;52.23;;;;;;;;;;4977901;28;20804;-51
2023/12/23 09:20:35;;;;;;;193.63;37.37;;;;;;;;;;4973377;28;20221;-50
2023/12/23 09:23:01;;;;;;;391.17;84.57;;;;;;;;;;4973100;28;20221;-50
2023/12/23 09:25:27;;;;;;;238.27;43.80;;;;;;;;;;4982750;28;20217;-51
2023/12/23 09:27:53;;;;;;;227.77;44.07;;;;;;;;;;4979890;28;20221;-51
2023/12/23 09:30:19;;;;;;;249.37;47.77;;;;;;;;;;4981018;28;20208;-51
2023/12/23 09:32:45;;;;;;;212.93;38.70;;;;;;;;;;4974946;28;20221;-51
2023/12/23 09:35:11;;;;;;;181.17;31.43;;;;;;;;;;4989954;28;20224;-51
2023/12/23 09:37:36;;;;;;;217.93;39.60;;;;;;;;;;4977977;28;20278;-51
2023/12/23 09:40:03;;;;;;;308.50;53.13;;;;;;;;;;4984088;28;20247;-51
2023/12/23 09:42:29;;;;;;;250.17;44.57;;;;;;;;;;4979621;28;20547;-51
2023/12/23 09:44:56;;;;;;;399.00;69.07;;;;;;;;;;4970275;28;20170;-51
2023/12/23 09:47:22;;;;;;;213.23;35.17;;;;;;;;;;4972756;28;20225;-51
2023/12/23 09:49:47;;;;;;;214.93;36.47;;;;;;;;;;4979338;28;20222;-51
2023/12/23 09:52:14;;;;;;;275.57;52.23;;;;;;;;;;4980422;28;20220;-51
2023/12/23 09:54:44;;;;;;;218.80;38.07;;;;;;;;;;4993378;28;20247;-50
2023/12/23 09:57:10;;;;;;;259.20;48.10;;;;;;;;;;4980358;28;20212;-51
2023/12/23 09:59:36;;;;;;;249.63;45.57;;;;;;;;;;4985762;28;20213;-51
2023/12/23 10:02:03;;;;;;;250.20;46.73;;;;;;;;;;4984626;28;20477;-51
2023/12/23 10:04:29;;;;;;;234.93;41.67;;;;;;;;;;4976985;28;20696;-51
2023/12/23 10:06:55;;;;;;;207.23;35.00;;;;;;;;;;4977296;28;20681;-51
2023/12/23 10:09:23;;;;;;;296.63;56.30;;;;;;;;;;4978372;28;20217;-51
2023/12/23 10:11:49;;;;;;;266.10;50.40;;;;;;;;;;4980357;28;20232;-52
2023/12/23 10:14:15;;;;;;;244.30;43.07;;;;;;;;;;4979696;28;20680;-50
2023/12/23 10:16:41;;;;;;;240.57;43.00;;;;;;;;;;4978604;28;20213;-51
2023/12/23 10:19:08;;;;;;;272.17;49.57;;;;;;;;;;4980718;28;20221;-51
2023/12/23 10:21:35;;;;;;;323.23;60.53;;;;;;;;;;4980792;28;20665;-50
2023/12/23 10:24:02;;;;;;;264.80;49.30;;;;;;;;;;4979779;28;20220;-51
2023/12/23 10:26:28;;;;;;;357.10;71.13;;;;;;;;;;4972958;28;20538;-51
2023/12/23 10:28:58;;;;;;;262.77;50.03;;;;;;;;;;4976014;28;20313;-51
2023/12/23 10:31:25;;;;;;;236.70;40.90;;;;;;;;;;4976126;28;20308;-51
2023/12/23 10:33:55;;;;;;;225.30;39.77;;;;;;;;;;4967591;28;20249;-51
2023/12/23 10:36:21;;;;;;;299.83;56.83;;;;;;;;;;4974852;28;20909;-52
2023/12/23 10:38:49;;;;;;;248.17;43.47;;;;;;;;;;4975870;28;20221;-52
2023/12/23 10:41:23;;;;;;;273.20;49.13;;;;;;;;;;4978288;28;20776;-52
2023/12/23 10:43:49;;;;;;;309.23;58.17;;;;;;;;;;4982070;28;20221;-50
2023/12/23 10:46:16;;;;;;;255.47;43.40;;;;;;;;;;4973170;28;20234;-50
2023/12/23 10:48:42;;;;;;;290.20;56.43;;;;;;;;;;4973790;28;20189;-50
2023/12/23 10:51:08;;;;;;;265.93;51.77;;;;;;;;;;4979697;28;20447;-50
2023/12/23 10:53:35;;;;;;;199.60;35.70;;;;;;;;;;4985897;28;20221;-50
2023/12/23 10:56:01;;;;;;;209.80;36.50;;;;;;;;;;4976125;28;20209;-50
2023/12/23 10:58:27;;;;;;;214.13;37.97;;;;;;;;;;4980049;28;20213;-51
2023/12/23 11:00:54;;;;;;;258.20;46.67;;;;;;;;;;4978368;28;20316;-51
2023/12/23 11:03:20;;;;;;;267.73;49.60;;;;;;;;;;4978147;28;20649;-51
2023/12/23 11:05:47;;;;;;;242.70;43.10;;;;;;;;;;4979958;28;20236;-51
2023/12/23 11:08:18;;;;;;;268.40;49.53;;;;;;;;;;4974441;28;20252;-51
2023/12/23 11:10:45;;;;;;;242.30;45.20;;;;;;;;;;4972837;28;20248;-52
2023/12/23 11:13:12;;;;;;;296.90;56.97;;;;;;;;;;4980314;28;20791;-52
2023/12/23 11:15:38;;;;;;;209.60;37.47;;;;;;;;;;4978630;28;20288;-52
2023/12/23 11:18:04;;;;;;;252.33;45.47;;;;;;;;;;4978564;28;20176;-52
2023/12/23 11:20:35;;;;;;;257.10;50.57;;;;;;;;;;4981751;28;20781;-52
2023/12/23 11:23:21;;;;;;;251.40;50.93;;;;;;;;;;4980488;28;20213;-52
2023/12/23 11:25:47;;;;;;;226.87;41.37;;;;;;;;;;4976082;28;20221;-52
2023/12/23 11:28:13;;;;;;;197.07;37.97;;;;;;;;;;4980249;28;20217;-52
2023/12/23 11:30:49;;;;;;;263.93;49.20;;;;;;;;;;4973117;28;20202;-51
2023/12/23 11:33:18;;;;;;;322.70;64.33;;;;;;;;;;4972702;28;20222;-52
2023/12/23 11:35:47;;;;;;;260.40;48.13;;;;;;;;;;4983016;28;20214;-53
2023/12/23 11:38:13;;;;;;;230.83;40.13;;;;;;;;;;4982942;28;20219;-53
2023/12/23 11:40:40;;;;;;;196.10;33.27;;;;;;;;;;4965324;28;20225;-52
2023/12/23 11:43:05;;;;;;;288.40;55.63;;;;;;;;;;4970969;28;20221;-53
2023/12/23 11:45:31;;;;;;;215.90;37.53;;;;;;;;;;4974749;28;20193;-52
2023/12/23 11:47:58;;;;;;;240.97;43.27;;;;;;;;;;4981077;28;20185;-52
2023/12/23 11:50:24;;;;;;;397.37;79.37;;;;;;;;;;4970275;28;20222;-52
2023/12/23 11:52:50;;;;;;;240.47;42.83;;;;;;;;;;4968556;28;20244;-52
2023/12/23 11:55:17;;;;;;;355.30;68.47;;;;;;;;;;4975846;28;20772;-52
2023/12/23 11:57:43;;;;;;;206.40;36.70;;;;;;;;;;4973498;28;20185;-51
2023/12/23 12:00:09;;;;;;;310.70;62.83;;;;;;;;;;4975691;28;20197;-52
2023/12/23 12:02:35;;;;;;;247.87;44.07;;;;;;;;;;4984524;28;20297;-51
2023/12/23 12:05:01;;;;;;;246.47;43.37;;;;;;;;;;4978244;28;20403;-51
2023/12/23 12:07:29;;;;;;;236.40;41.83;;;;;;;;;;4983199;28;20232;-51
2023/12/23 12:09:55;;;;;;;248.50;43.67;;;;;;;;;;4976570;28;20217;-52
2023/12/23 12:12:21;;;;;;;274.47;50.50;;;;;;;;;;4975813;28;20228;-52
2023/12/23 12:14:48;;;;;;;236.67;40.83;;;;;;;;;;4969164;28;21599;-52
2023/12/23 12:17:14;;;;;;;266.50;48.50;;;;;;;;;;4978859;28;20233;-52
2023/12/23 12:19:40;;;;;;;264.07;47.10;;;;;;;;;;4975972;28;20521;-52
2023/12/23 12:22:06;;;;;;;260.07;46.97;;;;;;;;;;4972048;28;20861;-52
2023/12/23 12:24:33;;;;;;;206.50;37.33;;;;;;;;;;4979997;28;20272;-52
2023/12/23 12:26:59;;;;;;;295.80;51.93;;;;;;;;;;4976594;28;20205;-52
2023/12/23 12:29:25;;;;;;;274.63;49.10;;;;;;;;;;4976248;28;20215;-52
2023/12/23 12:31:51;;;;;;;211.57;37.20;;;;;;;;;;4970026;28;20336;-52
2023/12/23 12:34:18;;;;;;;274.20;48.37;;;;;;;;;;4967701;28;20764;-52
2023/12/23 12:36:44;;;;;;;243.93;45.00;;;;;;;;;;4977742;28;20316;-53
2023/12/23 12:39:10;;;;;;;216.90;39.80;;;;;;;;;;4974055;28;20308;-53
2023/12/23 12:41:37;;;;;;;202.17;33.77;;;;;;;;;;4981516;28;20260;-52
2023/12/23 12:44:18;;;;;;;167.63;31.10;;;;;;;;;;4977051;28;20221;-52
2023/12/23 12:46:44;;;;;;;235.73;39.77;;;;;;;;;;4969858;28;20267;-51
2023/12/23 12:49:11;;;;;;;258.97;48.17;;;;;;;;;;4973375;28;20616;-52
2023/12/23 12:51:37;;;;;;;248.97;44.40;;;;;;;;;;4973215;28;20292;-51
2023/12/23 12:54:04;;;;;;;226.07;40.17;;;;;;;;;;4976333;28;20193;-51
2023/12/23 12:56:31;;;;;;;296.20;54.37;;;;;;;;;;4975548;28;20213;-52
2023/12/23 12:58:57;;;;;;;266.23;50.87;;;;;;;;;;4976100;28;20219;-51
2023/12/23 13:01:23;;;;;;;249.10;44.57;;;;;;;;;;4979630;28;20220;-51
2023/12/23 13:03:49;;;;;;;251.70;45.70;;;;;;;;;;4979100;28;20217;-51
2023/12/23 13:06:15;;;;;;;272.13;47.43;;;;;;;;;;4976994;28;20735;-53
2023/12/23 13:08:41;;;;;;;222.00;38.80;;;;;;;;;;4981943;28;20759;-51
2023/12/23 13:11:07;;;;;;;274.63;47.37;;;;;;;;;;4976621;28;20686;-51
2023/12/23 13:13:33;;;;;;;216.33;37.57;;;;;;;;;;4976402;28;20823;-51
2023/12/23 13:15:59;;;;;;;207.90;36.90;;;;;;;;;;4983084;28;20248;-52
2023/12/23 13:18:26;;;;;;;211.23;39.93;;;;;;;;;;4980392;28;20184;-51
2023/12/23 13:20:52;;;;;;;292.30;53.67;;;;;;;;;;4979131;28;20216;-52
2023/12/23 13:23:18;;;;;;;248.17;42.60;;;;;;;;;;4983680;28;20220;-51
2023/12/23 13:25:44;;;;;;;197.27;33.70;;;;;;;;;;4979214;28;20713;-52
2023/12/23 13:28:10;;;;;;;294.77;52.13;;;;;;;;;;4983166;28;20743;-52
2023/12/23 13:30:36;;;;;;;232.27;39.57;;;;;;;;;;4977528;28;20607;-52
2023/12/23 13:33:02;;;;;;;221.47;40.00;;;;;;;;;;4991118;28;20186;-52
2023/12/23 13:35:28;;;;;;;201.17;36.10;;;;;;;;;;4984930;28;20213;-51
2023/12/23 13:37:54;;;;;;;197.43;33.87;;;;;;;;;;4979593;28;20221;-52
2023/12/23 13:40:21;;;;;;;271.03;49.83;;;;;;;;;;4980511;28;20691;-51
2023/12/23 13:42:47;;;;;;;241.53;40.03;;;;;;;;;;4983957;28;20290;-52
2023/12/23 13:45:13;;;;;;;259.60;46.40;;;;;;;;;;4977517;28;20652;-52
2023/12/23 13:47:42;;;;;;;223.67;38.27;;;;;;;;;;4983588;28;20587;-52
2023/12/23 13:50:08;;;;;;;320.90;58.23;;;;;;;;;;4977527;28;20252;-52
2023/12/23 13:52:34;;;;;;;234.20;43.67;;;;;;;;;;4981937;28;20576;-52
2023/12/23 13:55:04;;;;;;;217.93;38.77;;;;;;;;;;4974392;28;20217;-51
2023/12/23 13:57:30;;;;;;;270.37;49.97;;;;;;;;;;4987637;28;20585;-52
2023/12/23 13:59:56;;;;;;;216.57;38.40;;;;;;;;;;4971555;28;20186;-51
2023/12/23 14:02:22;;;;;;;225.43;41.77;;;;;;;;;;4968364;28;20352;-52
2023/12/23 14:04:48;;;;;;;231.03;39.33;;;;;;;;;;4972564;28;20321;-52